Time;durP1;ratioP1;P1;durP2;ratioP2;P2;SDS_P1;SDS_P2;PMS_P1;PMS_P2;Temp;Humidity;BMP_temperature;BMP_pressure;BME280_temperature;BME280_humidity;BME280_pressure;Samples;Min_cycle;Max_cycle;Signal;HPM_P1;HPM_P2
2022/07/25 00:00:08;;;;;;;5.85;5.55;;;;;;;20.85;88.72;100880.78;6046618;23;20451;-75
2022/07/25 00:02:35;;;;;;;7.25;6.85;;;;;;;20.00;88.75;100752.53;6047237;23;20089;-74
2022/07/25 00:05:03;;;;;;;5.97;5.68;;;;;;;20.72;88.46;100867.72;6052509;23;20025;-73
2022/07/25 00:07:29;;;;;;;7.20;6.80;;;;;;;20.76;87.25;100854.97;6046538;23;20049;-73
2022/07/25 00:09:56;;;;;;;5.82;5.53;;;;;;;20.79;86.94;100849.31;6045435;23;20018;-74
2022/07/25 00:12:23;;;;;;;6.43;6.03;;;;;;;20.81;86.69;100850.06;6055379;23;20014;-74
2022/07/25 00:14:49;;;;;;;6.95;6.45;;;;;;;20.54;86.22;100787.59;6046776;23;20089;-75
2022/07/25 00:17:16;;;;;;;6.13;5.82;;;;;;;20.39;86.52;100767.69;6057261;23;20392;-75
2022/07/25 00:19:42;;;;;;;6.78;6.38;;;;;;;20.61;86.47;100787.91;6032457;23;20024;-72
2022/07/25 00:22:09;;;;;;;6.00;5.70;;;;;;;20.87;86.05;100826.31;6051290;23;20130;-72
2022/07/25 00:24:35;;;;;;;6.95;6.65;;;;;;;20.89;86.02;100818.16;6054649;23;20017;-73
2022/07/25 00:27:02;;;;;;;6.55;6.25;;;;;;;20.89;85.99;100816.31;6053424;23;21056;-73
2022/07/25 00:29:28;;;;;;;7.50;7.03;;;;;;;20.56;85.28;100760.78;6045397;23;20317;-73
2022/07/25 00:31:55;;;;;;;6.10;5.70;;;;;;;20.84;85.20;100813.25;6029125;23;20037;-73
2022/07/25 00:34:21;;;;;;;7.38;6.97;;;;;;;20.94;84.71;100815.06;6016775;23;20338;-74
2022/07/25 00:36:47;;;;;;;5.85;5.55;;;;;;;20.93;84.73;100814.22;6058271;23;20685;-74
2022/07/25 00:39:14;;;;;;;6.25;5.85;;;;;;;20.65;84.44;100762.63;6048704;23;20346;-73
2022/07/25 00:41:40;;;;;;;7.38;6.97;;;;;;;20.95;83.86;100803.38;6020105;23;20041;-74
2022/07/25 00:44:07;;;;;;;5.93;5.63;;;;;;;20.96;84.25;100805.06;6051599;23;20032;-75
2022/07/25 00:46:38;;;;;;;6.90;6.50;;;;;;;20.95;83.85;100801.56;6056781;23;20060;-74
2022/07/25 00:49:04;;;;;;;6.43;5.97;;;;;;;20.83;84.45;100797.41;6058573;23;20037;-72
2022/07/25 00:51:31;;;;;;;8.15;7.65;;;;;;;20.59;83.96;100742.72;6056107;23;20038;-74
2022/07/25 00:53:57;;;;;;;5.90;5.60;;;;;;;20.92;83.49;100797.34;6017138;23;20022;-75
2022/07/25 00:56:23;;;;;;;5.93;5.60;;;;;;;20.51;83.24;100739.88;6066004;23;20037;-74
2022/07/25 00:58:50;;;;;;;6.55;6.10;;;;;;;20.52;83.10;100744.22;6025454;23;20015;-74
2022/07/25 01:01:17;;;;;;;7.13;6.65;;;;;;;20.84;82.98;100791.06;6047460;23;20615;-73
2022/07/25 01:03:43;;;;;;;5.90;5.60;;;;;;;20.60;82.55;100752.38;6052046;23;20096;-75
2022/07/25 01:06:10;;;;;;;5.80;5.50;;;;;;;20.49;82.34;100736.53;6061831;23;20021;-73
2022/07/25 01:08:37;;;;;;;7.03;6.63;;;;;;;20.88;82.51;100793.28;6056038;23;20020;-74
2022/07/25 01:11:04;;;;;;;5.80;5.50;;;;;;;20.86;82.75;100787.25;6047863;23;20005;-73
2022/07/25 01:13:32;;;;;;;7.25;6.85;;;;;;;19.71;83.07;100606.09;6058862;23;20054;-75
2022/07/25 01:15:59;;;;;;;5.80;5.50;;;;;;;20.81;83.00;100792.19;6043297;23;20017;-74
2022/07/25 01:18:26;;;;;;;6.03;5.72;;;;;;;20.71;82.71;100770.06;6057858;23;20010;-73
2022/07/25 01:20:52;;;;;;;6.10;5.80;;;;;;;20.55;82.94;100746.63;6056736;23;20456;-75
2022/07/25 01:23:19;;;;;;;6.40;5.93;;;;;;;20.36;82.73;100720.00;6054958;23;20081;-73
2022/07/25 01:25:45;;;;;;;6.35;5.85;;;;;;;20.43;82.77;100724.59;6056003;23;20032;-74
2022/07/25 01:28:11;;;;;;;5.65;5.38;;;;;;;20.55;83.35;100743.94;6056423;23;20034;-74
2022/07/25 01:30:38;;;;;;;6.97;6.68;;;;;;;20.76;83.78;100785.63;6031202;23;20653;-75
2022/07/25 01:33:05;;;;;;;5.97;5.68;;;;;;;20.76;83.58;100780.28;6024173;23;20026;-75
2022/07/25 01:35:32;;;;;;;6.93;6.63;;;;;;;20.11;83.28;100685.81;6030478;23;20044;-74
2022/07/25 01:37:59;;;;;;;6.20;5.90;;;;;;;20.68;84.07;100787.16;6053351;23;20528;-74
2022/07/25 01:40:25;;;;;;;5.90;5.50;;;;;;;20.63;84.22;100773.44;6041421;23;20025;-74
2022/07/25 01:42:52;;;;;;;6.70;6.35;;;;;;;20.14;84.29;100695.31;6036159;23;20021;-73
2022/07/25 01:45:18;;;;;;;5.53;5.25;;;;;;;20.08;84.33;100694.06;6053861;23;20025;-74
2022/07/25 01:47:44;;;;;;;5.95;5.65;;;;;;;20.30;84.66;100734.72;6044373;23;20737;-72
2022/07/25 01:50:11;;;;;;;5.90;5.50;;;;;;;20.01;84.75;100689.47;6052926;23;20028;-73
2022/07/25 01:52:38;;;;;;;7.03;6.63;;;;;;;20.11;85.28;100717.78;6052485;23;20106;-74
2022/07/25 01:55:06;;;;;;;6.05;5.75;;;;;;;19.86;85.71;100679.22;6042012;23;20030;-73
2022/07/25 01:57:32;;;;;;;7.18;6.88;;;;;;;20.30;86.38;100759.53;6050116;23;20036;-74
2022/07/25 02:00:04;;;;;;;5.95;5.65;;;;;;;19.79;86.36;100678.13;6055939;23;20022;-74
2022/07/25 02:02:30;;;;;;;8.13;7.40;;;;;;;19.84;86.25;100693.66;6052495;23;20033;-73
2022/07/25 02:04:57;;;;;;;5.70;5.30;;;;;;;19.66;86.18;100661.53;6051162;23;20631;-73
2022/07/25 02:07:23;;;;;;;5.68;5.45;;;;;;;20.24;86.27;100756.59;6025953;23;20404;-72
2022/07/25 02:09:49;;;;;;;5.72;5.43;;;;;;;20.20;86.50;100745.38;6045656;23;20034;-73
2022/07/25 02:12:22;;;;;;;5.78;5.47;;;;;;;20.06;85.59;100725.34;6038388;23;20023;-73
2022/07/25 02:14:48;;;;;;;5.53;5.25;;;;;;;20.16;86.01;100741.31;6046669;23;20572;-75
2022/07/25 02:17:15;;;;;;;5.97;5.68;;;;;;;20.13;85.76;100734.47;6041417;23;20026;-74
2022/07/25 02:19:41;;;;;;;6.35;6.05;;;;;;;19.65;85.33;100649.22;6049790;23;20026;-74
2022/07/25 02:22:08;;;;;;;6.45;5.88;;;;;;;19.69;85.15;100671.94;6051431;23;20023;-75
2022/07/25 02:24:36;;;;;;;17.75;16.80;;;;;;;20.06;85.02;100722.66;5918953;23;20602;-74
2022/07/25 02:27:04;;;;;;;6.10;5.80;;;;;;;19.04;85.21;100560.69;6049629;23;20054;-74
2022/07/25 02:29:31;;;;;;;6.97;6.65;;;;;;;20.05;85.20;100730.84;6048124;23;20017;-73
2022/07/25 02:31:58;;;;;;;5.65;5.35;;;;;;;20.00;84.90;100722.41;6048204;23;20015;-71
2022/07/25 02:34:24;;;;;;;6.68;6.35;;;;;;;19.65;84.99;100674.03;6048205;23;20440;-72
2022/07/25 02:36:51;;;;;;;5.80;5.50;;;;;;;19.50;84.69;100639.00;6024780;23;20026;-74
2022/07/25 02:39:17;;;;;;;5.93;5.63;;;;;;;19.50;84.93;100643.47;6048151;23;20101;-75
2022/07/25 02:41:44;;;;;;;6.10;5.80;;;;;;;19.58;84.80;100661.41;6032359;23;20018;-74
2022/07/25 02:44:11;;;;;;;6.80;6.10;;;;;;;18.61;85.03;100506.00;6053945;23;20026;-74
2022/07/25 02:46:37;;;;;;;7.93;7.50;;;;;;;19.49;85.23;100663.09;6026320;23;20031;-75
2022/07/25 02:49:04;;;;;;;6.00;5.65;;;;;;;19.20;85.70;100628.44;6030726;23;20093;-75
2022/07/25 02:51:30;;;;;;;7.60;7.07;;;;;;;18.83;84.59;100530.69;6057895;23;20041;-73
2022/07/25 02:53:57;;;;;;;6.30;5.90;;;;;;;19.37;85.09;100641.06;6058470;23;20041;-73
2022/07/25 02:56:25;;;;;;;6.40;6.00;;;;;;;19.75;85.63;100705.19;6060924;23;20443;-73
2022/07/25 02:58:56;;;;;;;6.05;5.65;;;;;;;19.66;86.44;100698.81;6051230;23;20006;-73
2022/07/25 03:01:22;;;;;;;6.30;5.90;;;;;;;19.65;86.29;100702.47;6033165;23;20031;-72
2022/07/25 03:03:49;;;;;;;6.10;5.80;;;;;;;19.12;86.31;100615.81;6032053;23;20015;-72
2022/07/25 03:06:15;;;;;;;6.70;6.20;;;;;;;18.47;85.81;100509.03;6062013;23;20019;-72
2022/07/25 03:08:42;;;;;;;6.45;6.00;;;;;;;19.06;86.00;100617.25;6043543;23;20039;-73
2022/07/25 03:11:10;;;;;;;5.97;5.63;;;;;;;19.07;86.01;100613.59;6066113;23;20084;-74
2022/07/25 03:13:36;;;;;;;7.53;7.03;;;;;;;19.06;85.70;100611.06;6053219;23;20089;-73
2022/07/25 03:16:03;;;;;;;5.80;5.50;;;;;;;19.42;85.84;100664.59;6069267;23;20093;-71
2022/07/25 03:18:30;;;;;;;6.60;6.30;;;;;;;19.52;85.64;100678.75;6048701;23;20049;-73
2022/07/25 03:20:56;;;;;;;5.88;5.57;;;;;;;19.54;85.50;100676.81;6033305;23;20043;-73
2022/07/25 03:23:23;;;;;;;6.00;5.70;;;;;;;18.31;85.17;100478.50;6057865;23;20639;-73
2022/07/25 03:25:50;;;;;;;6.20;5.90;;;;;;;19.50;85.54;100670.06;6009895;23;20456;-72
2022/07/25 03:28:16;;;;;;;5.78;5.47;;;;;;;19.17;85.92;100628.72;6057991;23;20032;-75
2022/07/25 03:30:43;;;;;;;6.40;6.00;;;;;;;19.42;86.20;100662.78;6049363;23;20014;-73
2022/07/25 03:33:09;;;;;;;5.93;5.63;;;;;;;19.41;85.69;100661.13;6052257;23;20475;-71
2022/07/25 03:35:36;;;;;;;11.65;6.45;;;;;;;19.16;85.76;100621.72;6057648;23;20022;-72
2022/07/25 03:38:03;;;;;;;5.78;5.20;;;;;;;18.87;86.22;100586.09;6026156;23;20026;-75
2022/07/25 03:40:30;;;;;;;7.13;6.75;;;;;;;19.07;85.86;100608.25;6031637;23;20029;-73
2022/07/25 03:42:56;;;;;;;5.75;5.45;;;;;;;18.98;84.86;100584.31;6062666;23;20025;-74
2022/07/25 03:45:23;;;;;;;6.13;5.75;;;;;;;19.27;85.38;100613.63;6056492;23;20033;-74
2022/07/25 03:47:49;;;;;;;6.13;5.82;;;;;;;19.24;85.74;100629.84;6053931;23;20029;-72
2022/07/25 03:50:16;;;;;;;6.45;5.95;;;;;;;19.27;85.24;100625.09;6033228;23;20514;-73
2022/07/25 03:52:42;;;;;;;6.00;5.70;;;;;;;19.41;84.95;100652.28;6030036;23;20092;-75
2022/07/25 03:55:10;;;;;;;6.13;5.72;;;;;;;18.95;84.83;100569.47;6053791;23;20026;-73
2022/07/25 03:57:37;;;;;;;6.10;5.80;;;;;;;19.29;85.43;100612.50;6051110;23;20033;-75
2022/07/25 04:00:08;;;;;;;5.88;5.57;;;;;;;19.46;84.82;100637.56;6060175;23;20017;-73
2022/07/25 04:02:36;;;;;;;7.20;6.90;;;;;;;19.00;84.67;100551.28;6011778;23;20169;-72
2022/07/25 04:05:05;;;;;;;5.85;5.55;;;;;;;19.33;82.78;100603.25;6020042;23;20023;-74
2022/07/25 04:07:31;;;;;;;7.28;6.80;;;;;;;18.30;82.30;100407.75;6042726;23;20037;-73
2022/07/25 04:09:58;;;;;;;5.50;5.20;;;;;;;19.38;81.95;100560.25;6053505;23;21628;-73
2022/07/25 04:12:25;;;;;;;5.50;5.20;;;;;;;19.83;80.65;100620.94;6051161;23;20037;-72
2022/07/25 04:14:51;;;;;;;5.50;5.20;;;;;;;19.82;80.32;100592.59;6048856;23;20022;-71
2022/07/25 04:17:17;;;;;;;5.72;5.40;;;;;;;20.16;79.94;100599.28;6055200;23;20543;-74
2022/07/25 04:19:45;;;;;;;5.60;5.28;;;;;;;20.41;77.50;100571.13;6037764;23;20036;-73
2022/07/25 04:22:12;;;;;;;5.97;5.68;;;;;;;21.03;74.74;100579.38;6049945;23;20027;-73
2022/07/25 04:24:38;;;;;;;7.07;6.68;;;;;;;20.91;73.00;100496.06;6048977;23;20023;-72
2022/07/25 04:27:05;;;;;;;6.35;5.95;;;;;;;21.59;71.75;100577.41;6048927;23;20503;-72
2022/07/25 04:29:31;;;;;;;7.65;7.25;;;;;;;21.69;70.90;100551.47;6052125;23;20016;-72
2022/07/25 04:31:57;;;;;;;6.15;5.82;;;;;;;21.78;69.30;100493.59;6054118;23;20024;-73
2022/07/25 04:34:25;;;;;;;6.38;5.95;;;;;;;22.47;68.59;100502.44;6044884;23;20042;-71
2022/07/25 04:36:51;;;;;;;6.40;6.00;;;;;;;23.38;65.96;100539.06;6053285;23;20027;-73
2022/07/25 04:39:17;;;;;;;5.80;5.50;;;;;;;23.77;64.64;100489.28;6050443;23;20480;-71
2022/07/25 04:41:44;;;;;;;6.03;5.72;;;;;;;23.62;62.49;100535.53;6034393;23;20100;-70
2022/07/25 04:44:10;;;;;;;6.57;6.15;;;;;;;23.33;62.25;100461.06;6051664;23;20026;-69
2022/07/25 04:46:37;;;;;;;7.40;6.90;;;;;;;23.74;62.02;100521.81;6036919;23;20018;-73
2022/07/25 04:49:03;;;;;;;6.40;6.00;;;;;;;23.96;61.59;100528.31;6028956;23;20036;-74
2022/07/25 04:51:30;;;;;;;7.43;7.03;;;;;;;24.23;60.49;100468.88;6057866;23;20385;-74
2022/07/25 04:53:56;;;;;;;6.05;5.72;;;;;;;24.44;58.60;100488.91;6019985;23;20037;-72
2022/07/25 04:56:23;;;;;;;6.07;5.78;;;;;;;24.67;58.31;100468.31;6058378;23;20203;-72
2022/07/25 04:58:49;;;;;;;6.80;6.50;;;;;;;24.58;58.53;100480.16;6030312;23;20079;-73
2022/07/25 05:01:16;;;;;;;7.07;6.38;;;;;;;24.23;60.26;100529.72;6057532;23;20101;-74
2022/07/25 05:03:42;;;;;;;6.90;6.50;;;;;;;22.96;64.12;100502.53;6056988;23;20030;-74
2022/07/25 05:06:16;;;;;;;5.90;5.60;;;;;;;23.03;64.96;100516.97;6053620;23;20022;-74
2022/07/25 05:08:42;;;;;;;6.63;6.28;;;;;;;23.04;66.52;100539.22;6068241;23;20026;-76
2022/07/25 05:11:09;;;;;;;6.28;5.97;;;;;;;22.78;68.25;100552.69;6059469;23;20022;-73
2022/07/25 05:13:35;;;;;;;7.70;7.30;;;;;;;22.24;68.62;100470.94;6056413;23;20550;-74
2022/07/25 05:16:02;;;;;;;6.55;6.20;;;;;;;22.72;68.89;100553.34;6061214;23;20014;-72
2022/07/25 05:18:28;;;;;;;7.65;7.25;;;;;;;22.61;68.69;100517.00;6040718;23;20608;-72
2022/07/25 05:20:55;;;;;;;6.35;5.85;;;;;;;22.79;68.26;100532.94;6052528;23;20491;-76
2022/07/25 05:23:21;;;;;;;6.18;5.80;;;;;;;22.54;67.65;100458.00;6050873;23;20050;-72
2022/07/25 05:25:48;;;;;;;6.35;6.03;;;;;;;22.97;66.77;100511.41;6039452;23;20009;-71
2022/07/25 05:28:16;;;;;;;6.18;5.85;;;;;;;22.77;66.84;100471.59;6052387;23;20029;-75
2022/07/25 05:30:42;;;;;;;6.90;6.50;;;;;;;23.29;65.16;100540.06;6057403;23;20147;-73
2022/07/25 05:33:09;;;;;;;8.05;7.53;;;;;;;23.27;65.33;100537.59;6056281;23;20033;-73
2022/07/25 05:35:35;;;;;;;7.28;6.88;;;;;;;23.28;65.39;100533.88;6059639;23;20032;-73
2022/07/25 05:38:02;;;;;;;6.03;5.72;;;;;;;23.33;64.59;100536.06;6048991;23;20093;-73
2022/07/25 05:40:28;;;;;;;7.43;7.03;;;;;;;23.30;65.20;100547.13;6050986;23;20134;-74
2022/07/25 05:42:55;;;;;;;6.50;5.97;;;;;;;23.29;65.38;100524.88;6055129;23;20428;-71
2022/07/25 05:45:28;;;;;;;7.07;6.68;;;;;;;23.42;64.34;100529.69;6034165;23;20047;-71
2022/07/25 05:47:54;;;;;;;6.10;5.72;;;;;;;23.10;64.84;100467.13;6015573;23;20018;-72
2022/07/25 05:50:21;;;;;;;6.78;6.38;;;;;;;23.71;63.92;100517.59;6024438;23;20086;-72
2022/07/25 05:52:47;;;;;;;6.13;5.82;;;;;;;23.93;62.54;100475.03;6025220;23;20471;-71
2022/07/25 05:55:14;;;;;;;6.55;6.15;;;;;;;24.71;60.05;100508.25;6023320;23;20025;-72
2022/07/25 05:57:41;;;;;;;7.10;6.70;;;;;;;25.00;60.08;100494.97;6050798;23;20030;-72
2022/07/25 06:00:08;;;;;;;6.30;6.00;;;;;;;25.37;56.94;100466.47;6035007;23;20023;-72
2022/07/25 06:02:34;;;;;;;8.75;8.25;;;;;;;25.73;55.75;100440.75;6046390;23;20071;-72
2022/07/25 06:05:01;;;;;;;6.30;5.90;;;;;;;25.80;56.13;100455.09;6016435;23;20015;-72
2022/07/25 06:07:28;;;;;;;7.10;6.75;;;;;;;25.71;57.02;100473.19;6020986;23;20306;-71
2022/07/25 06:09:54;;;;;;;6.78;6.38;;;;;;;25.28;57.23;100486.38;6044043;23;20024;-72
2022/07/25 06:12:20;;;;;;;7.15;6.65;;;;;;;25.29;57.08;100394.03;6058882;23;20030;-71
2022/07/25 06:14:49;;;;;;;7.10;6.60;;;;;;;25.03;55.50;100403.28;6046910;23;20314;-71
2022/07/25 06:17:16;;;;;;;6.25;5.93;;;;;;;24.11;57.40;100338.09;6060858;23;20027;-72
2022/07/25 06:19:42;;;;;;;7.55;7.05;;;;;;;24.41;58.45;100457.88;6050675;23;20322;-72
2022/07/25 06:22:10;;;;;;;6.50;6.10;;;;;;;24.25;59.93;100509.75;6048944;23;20056;-73
2022/07/25 06:24:36;;;;;;;6.88;6.47;;;;;;;24.19;60.39;100480.13;6027946;23;20025;-72
2022/07/25 06:27:03;;;;;;;5.93;5.63;;;;;;;24.08;61.39;100503.66;6019800;23;20015;-71
2022/07/25 06:29:29;;;;;;;7.88;7.38;;;;;;;24.09;61.53;100483.03;6051648;23;20018;-73
2022/07/25 06:31:56;;;;;;;6.30;6.00;;;;;;;24.27;61.45;100462.16;6057656;23;20586;-71
2022/07/25 06:34:22;;;;;;;6.38;5.97;;;;;;;25.00;59.36;100484.22;6032711;23;20418;-72
2022/07/25 06:36:54;;;;;;;6.32;6.03;;;;;;;25.44;58.60;100490.75;6055957;23;20097;-71
2022/07/25 06:39:20;;;;;;;6.72;6.32;;;;;;;25.56;57.08;100422.13;6055276;23;20018;-73
2022/07/25 06:41:47;;;;;;;6.53;6.15;;;;;;;26.21;55.97;100470.78;6018433;23;20465;-71
2022/07/25 06:44:13;;;;;;;6.20;5.90;;;;;;;26.11;54.84;100456.78;6039638;23;20024;-72
2022/07/25 06:46:40;;;;;;;7.68;7.28;;;;;;;26.26;54.74;100460.28;6082481;23;20507;-72
2022/07/25 06:49:06;;;;;;;6.28;5.90;;;;;;;26.23;54.57;100463.34;6066985;23;20109;-73
2022/07/25 06:51:33;;;;;;;7.15;6.75;;;;;;;26.06;54.12;100441.22;6082013;23;20032;-72
2022/07/25 06:53:59;;;;;;;6.32;6.03;;;;;;;26.25;54.37;100432.53;6073658;23;20022;-74
2022/07/25 06:56:30;;;;;;;6.45;6.15;;;;;;;25.88;55.12;100412.84;6075576;23;20029;-74
2022/07/25 06:58:57;;;;;;;6.18;5.85;;;;;;;26.27;55.40;100446.63;6065079;23;20026;-73
2022/07/25 07:01:23;;;;;;;6.50;6.10;;;;;;;26.07;54.00;100399.84;6053465;23;20022;-71
2022/07/25 07:03:50;;;;;;;6.43;6.00;;;;;;;26.54;54.43;100428.09;6052156;23;20018;-72
2022/07/25 07:06:17;;;;;;;6.28;5.97;;;;;;;26.66;55.08;100456.22;6073600;23;20063;-71
2022/07/25 07:08:43;;;;;;;7.18;6.78;;;;;;;26.73;55.32;100450.88;6079551;23;20097;-71
2022/07/25 07:11:14;;;;;;;6.22;5.93;;;;;;;26.81;54.97;100452.63;6075963;23;20029;-71
2022/07/25 07:13:40;;;;;;;7.65;7.20;;;;;;;26.53;54.86;100404.91;6074390;23;20037;-71
2022/07/25 07:16:07;;;;;;;6.57;6.18;;;;;;;26.84;54.96;100433.38;6069726;23;20029;-70
2022/07/25 07:18:33;;;;;;;7.53;7.13;;;;;;;26.69;54.14;100424.56;6063146;23;20715;-72
2022/07/25 07:21:00;;;;;;;6.65;6.25;;;;;;;26.39;54.37;100371.63;6071444;23;20009;-70
2022/07/25 07:23:26;;;;;;;7.35;6.97;;;;;;;26.69;54.73;100395.75;6073976;23;20049;-71
2022/07/25 07:25:54;;;;;;;6.50;6.15;;;;;;;26.85;53.47;100391.97;6035096;23;20024;-71
2022/07/25 07:28:21;;;;;;;6.63;6.22;;;;;;;27.30;53.77;100435.63;6074187;23;20112;-70
2022/07/25 07:30:47;;;;;;;6.43;5.93;;;;;;;27.17;53.23;100362.78;6054965;23;20635;-70
2022/07/25 07:33:34;;;;;;;8.15;7.47;;;;;;;27.72;53.14;100433.84;6068215;23;20446;-69
2022/07/25 07:36:00;;;;;;;6.25;5.95;;;;;;;27.91;52.05;100391.03;6071311;23;20036;-72
2022/07/25 07:38:27;;;;;;;6.80;6.40;;;;;;;28.59;51.92;100435.06;6065290;23;20633;-70
2022/07/25 07:40:53;;;;;;;6.93;6.50;;;;;;;28.81;49.45;100429.47;6047566;23;20365;-70
2022/07/25 07:43:20;;;;;;;7.45;6.97;;;;;;;29.01;49.56;100416.81;6049691;23;20352;-71
2022/07/25 07:45:59;;;;;;;6.70;6.30;;;;;;;28.80;48.83;100336.78;6058399;23;20645;-71
2022/07/25 07:48:29;;;;;;;6.78;6.38;;;;;;;29.20;49.02;100357.56;6067096;23;20349;-71
2022/07/25 07:50:57;;;;;;;6.15;5.85;;;;;;;29.28;47.99;100353.81;6070667;23;20092;-70
2022/07/25 07:55:42;;;;;;;6.80;6.40;;;;;;;29.78;48.54;100411.72;6065833;23;20025;-71
2022/07/25 07:56:10;;;;;;;6.90;6.50;;;;;;;29.44;49.25;100402.84;6045154;23;20089;-70
2022/07/25 07:58:37;;;;;;;7.32;6.93;;;;;;;29.56;48.48;100430.06;6047754;23;20266;-72
2022/07/25 08:01:04;;;;;;;6.65;6.25;;;;;;;29.61;48.97;100418.63;6025411;23;20335;-71
2022/07/25 08:03:30;;;;;;;7.70;7.28;;;;;;;29.22;48.60;100444.66;6074566;23;20470;-71
2022/07/25 08:05:56;;;;;;;6.80;6.40;;;;;;;29.08;49.38;100383.53;6049870;23;20432;-72
2022/07/25 08:08:23;;;;;;;7.15;6.75;;;;;;;29.23;49.23;100424.72;6041614;23;20431;-72
2022/07/25 08:10:57;;;;;;;6.60;6.20;;;;;;;28.88;48.67;100416.78;6035491;23;20033;-71
2022/07/25 08:13:27;;;;;;;6.35;6.05;;;;;;;28.81;46.27;100459.19;6078694;23;20026;-71
2022/07/25 08:15:57;;;;;;;6.68;6.28;;;;;;;28.72;44.37;100415.31;6065679;23;20034;-70
2022/07/25 08:18:25;;;;;;;6.40;6.07;;;;;;;28.57;44.34;100453.31;6043463;23;20015;-73
2022/07/25 08:20:52;;;;;;;6.70;6.30;;;;;;;28.40;45.22;100425.00;6076862;23;20045;-71
2022/07/25 08:23:19;;;;;;;6.20;5.90;;;;;;;28.64;45.32;100478.47;6072978;23;20022;-71
2022/07/25 08:25:46;;;;;;;6.75;6.35;;;;;;;28.69;46.53;100469.75;6042054;23;20026;-70
2022/07/25 08:28:13;;;;;;;6.80;6.30;;;;;;;28.26;46.53;100453.81;6074662;23;20045;-70
2022/07/25 08:30:40;;;;;;;7.93;7.45;;;;;;;28.30;46.44;100486.63;6044814;23;20018;-71
2022/07/25 08:33:09;;;;;;;6.43;6.03;;;;;;;28.32;47.01;100476.47;6078858;23;20396;-70
2022/07/25 08:35:36;;;;;;;8.20;7.38;;;;;;;28.17;47.27;100458.56;6051960;23;20361;-71
2022/07/25 08:38:03;;;;;;;6.80;6.30;;;;;;;28.17;47.39;100488.25;6078203;23;20293;-72
2022/07/25 08:40:31;;;;;;;7.53;7.03;;;;;;;28.16;46.52;100477.66;6021059;23;20078;-73
2022/07/25 08:42:58;;;;;;;6.53;6.13;;;;;;;28.04;46.21;100447.72;6076635;23;20024;-73
2022/07/25 08:45:27;;;;;;;6.60;6.22;;;;;;;28.20;46.13;100484.31;6049188;23;20120;-74
2022/07/25 08:47:54;;;;;;;6.20;5.90;;;;;;;28.18;46.72;100487.19;6024657;23;20480;-72
2022/07/25 08:50:24;;;;;;;6.63;6.20;;;;;;;27.90;46.59;100483.75;6054522;23;20431;-73
2022/07/25 08:52:51;;;;;;;6.68;6.28;;;;;;;27.84;47.72;100506.91;6026228;23;20444;-74
2022/07/25 08:55:35;;;;;;;7.57;7.15;;;;;;;27.08;47.07;100396.28;6006619;23;20090;-71
2022/07/25 08:58:02;;;;;;;6.07;5.78;;;;;;;27.87;47.49;100505.72;6047018;23;20130;-72
2022/07/25 09:00:28;;;;;;;6.45;6.10;;;;;;;27.50;47.77;100432.25;6036556;23;20043;-73
2022/07/25 09:03:00;;;;;;;6.38;6.07;;;;;;;27.58;47.35;100426.72;6051131;23;20080;-72
2022/07/25 09:05:30;;;;;;;6.90;6.60;;;;;;;27.70;46.72;100400.03;6028161;23;20046;-74
2022/07/25 09:08:05;;;;;;;6.68;6.28;;;;;;;28.35;46.45;100501.19;6051219;23;20101;-73
2022/07/25 09:10:31;;;;;;;6.63;6.22;;;;;;;28.78;45.73;100467.69;6032303;23;20029;-74
2022/07/25 09:13:04;;;;;;;6.60;6.20;;;;;;;28.70;45.58;100498.41;6013589;23;20121;-73
2022/07/25 09:15:37;;;;;;;6.90;6.55;;;;;;;28.78;44.45;100503.63;6041998;23;20082;-74
2022/07/25 09:18:07;;;;;;;6.88;6.47;;;;;;;28.61;45.45;100481.59;6016901;23;20019;-73
2022/07/25 09:20:59;;;;;;;7.28;6.88;;;;;;;28.55;45.40;100514.81;6047966;23;20037;-73
2022/07/25 09:23:30;;;;;;;8.63;6.28;;;;;;;28.59;44.32;100436.94;6006317;23;20025;-74
2022/07/25 09:26:12;;;;;;;6.00;5.70;;;;;;;29.14;43.57;100517.84;6041234;23;20444;-72
2022/07/25 09:28:44;;;;;;;7.38;6.97;;;;;;;28.65;44.53;100536.03;6044916;23;20034;-73
2022/07/25 09:31:12;;;;;;;6.03;5.72;;;;;;;28.42;45.14;100539.00;6024327;23;20029;-73
2022/07/25 09:34:00;;;;;;;7.00;6.63;;;;;;;28.10;45.90;100525.16;6014892;23;20029;-73
2022/07/25 09:36:27;;;;;;;6.93;6.53;;;;;;;28.14;45.96;100545.31;6007994;23;20222;-73
2022/07/25 09:38:55;;;;;;;6.70;6.30;;;;;;;28.27;47.08;100549.13;6053078;23;20015;-72
2022/07/25 09:41:21;;;;;;;7.20;6.80;;;;;;;28.41;46.20;100548.16;6045403;23;20370;-74
2022/07/25 09:43:48;;;;;;;6.38;5.97;;;;;;;28.55;46.30;100551.78;6047283;23;20008;-72
2022/07/25 09:46:15;;;;;;;6.82;6.32;;;;;;;28.51;46.52;100558.63;6029951;23;20510;-72
2022/07/25 09:48:43;;;;;;;7.15;6.75;;;;;;;28.38;46.17;100543.13;6042635;23;20419;-73
2022/07/25 09:51:10;;;;;;;6.68;6.18;;;;;;;28.35;46.93;100557.06;6043787;23;20510;-72
2022/07/25 09:53:36;;;;;;;6.00;5.70;;;;;;;27.89;47.62;100547.66;6035565;23;20128;-73
2022/07/25 09:56:03;;;;;;;6.05;5.75;;;;;;;27.34;48.57;100558.19;6022306;23;20093;-72
2022/07/25 09:58:29;;;;;;;7.35;6.95;;;;;;;27.19;49.01;100608.59;6052013;23;20047;-73
2022/07/25 10:01:00;;;;;;;5.97;5.68;;;;;;;26.94;49.60;100608.97;6034672;23;20506;-72
2022/07/25 10:03:46;;;;;;;6.75;6.45;;;;;;;26.61;56.31;100625.53;6004669;23;20086;-74
2022/07/25 10:06:49;;;;;;;6.85;6.45;;;;;;;26.29;58.80;100642.03;6046141;23;20025;-72
2022/07/25 10:09:15;;;;;;;6.50;6.20;;;;;;;26.05;59.99;100650.13;6041348;23;20090;-71
2022/07/25 10:12:04;;;;;;;6.75;6.38;;;;;;;25.95;62.14;100643.34;6014879;23;20015;-73
2022/07/25 10:14:32;;;;;;;6.22;5.93;;;;;;;25.78;61.88;100632.72;6049475;23;20021;-73
2022/07/25 10:17:00;;;;;;;6.60;6.25;;;;;;;25.55;61.69;100608.53;6047695;23;20018;-73
2022/07/25 10:19:40;;;;;;;7.50;6.90;;;;;;;25.71;63.14;100644.38;6055155;23;20443;-73
2022/07/25 10:22:14;;;;;;;6.15;5.85;;;;;;;25.56;62.18;100647.84;6022314;23;20019;-74
2022/07/25 10:24:46;;;;;;;7.35;6.95;;;;;;;25.15;63.39;100636.50;6048265;23;20018;-74
2022/07/25 10:27:21;;;;;;;6.30;5.90;;;;;;;25.36;64.14;100614.38;6053636;23;20077;-73
2022/07/25 10:29:53;;;;;;;6.32;6.03;;;;;;;25.45;63.11;100583.78;6007964;23;20041;-72
2022/07/25 10:32:24;;;;;;;6.45;6.05;;;;;;;25.88;63.63;100601.03;6052047;23;20035;-72
2022/07/25 10:34:53;;;;;;;6.13;5.82;;;;;;;26.19;61.63;100585.78;6017790;23;20011;-71
2022/07/25 10:37:26;;;;;;;6.35;5.95;;;;;;;26.26;59.17;100557.97;6041935;23;20019;-74
2022/07/25 10:39:53;;;;;;;5.90;5.60;;;;;;;26.66;58.34;100571.97;6048371;23;20499;-73
2022/07/25 10:42:21;;;;;;;6.32;6.03;;;;;;;26.85;59.20;100557.06;6016090;23;20026;-72
2022/07/25 10:44:49;;;;;;;6.10;5.80;;;;;;;27.45;56.65;100567.63;6033650;23;20041;-71
2022/07/25 10:47:16;;;;;;;5.85;5.55;;;;;;;28.11;56.61;100559.22;6045614;23;20090;-70
2022/07/25 10:49:46;;;;;;;6.30;6.00;;;;;;;27.85;53.15;100573.31;6011763;23;20229;-72
2022/07/25 10:52:41;;;;;;;7.28;6.88;;;;;;;27.82;49.52;100501.75;6038424;23;20214;-72
2022/07/25 10:55:08;;;;;;;5.80;5.50;;;;;;;27.77;46.82;100514.97;6044218;23;20499;-72
2022/07/25 10:57:34;;;;;;;7.65;7.13;;;;;;;28.38;48.32;100552.06;6017014;23;20089;-72
2022/07/25 11:00:06;;;;;;;6.50;6.10;;;;;;;28.48;47.20;100519.28;6047592;23;20017;-71
2022/07/25 11:02:32;;;;;;;6.70;6.37;;;;;;;28.33;44.32;100569.91;6040402;23;20389;-72
2022/07/25 11:05:01;;;;;;;6.00;5.70;;;;;;;28.16;45.91;100572.91;6018775;23;20152;-73
2022/07/25 11:07:34;;;;;;;6.40;6.03;;;;;;;28.23;45.70;100568.41;6042641;23;20042;-73
2022/07/25 11:10:03;;;;;;;6.30;6.00;;;;;;;28.32;45.25;100569.06;6045821;23;20006;-72
2022/07/25 11:12:31;;;;;;;7.32;6.95;;;;;;;28.54;44.95;100552.78;6016643;23;20037;-72
2022/07/25 11:15:04;;;;;;;6.30;5.90;;;;;;;28.84;43.53;100574.91;6022677;23;20054;-72
2022/07/25 11:17:31;;;;;;;7.07;6.72;;;;;;;28.65;43.19;100525.22;6043093;23;20014;-72
2022/07/25 11:19:58;;;;;;;5.80;5.50;;;;;;;28.71;41.88;100585.69;6055077;23;20502;-72
2022/07/25 11:22:28;;;;;;;6.03;5.72;;;;;;;28.47;42.36;100593.25;6016364;23;20021;-71
2022/07/25 11:24:58;;;;;;;5.93;5.63;;;;;;;28.86;41.94;100596.31;6052253;23;20021;-73
2022/07/25 11:27:30;;;;;;;6.47;5.90;;;;;;;27.44;42.47;100329.63;6051057;23;20030;-73